ハバナ の空港の天気 - METARとTAF

ホセ・マルティ国際空港 ( MUHA / HAV ) - キューバ ハバナ
飛行場実況気象(Metar)
観測時間08/13 16:50 CDT (08/13 20:50 UTC)
風向・風速東南東 5m/s
視程5000m
天気現象雷雨
全天の8割程度の雲 雲底高度 550m
気温23℃
湿度94%
気圧1016hPa
METARMUHA 132050Z 11009KT 5000 2000S R06/P2000U R24/1000V2100U TSRA BKN018CB 23/22 Q1016
過去の天気等 Google飛行場航空写真 Wunderground天気予報

過去48時間のMETAR

飛行場予報(TAF)
発表時間: 8/13 13:00 CDT (8/13 17:00 UTC)
予報対象時間: 13日14時 CDT ~ 14日14時 CDT
風向・風速東南東 5m/s
視程9000m
少しの雲 雲底高度 910m
13日15時 CDT ~ 13日18時 CDT に一時的に
風向・風速北東 5m/s
視程3000m
天気現象雷雨
少しの積乱雲 雲底高度 550m
全天の8割程度の雲 雲底高度 910m
13日21時 CDT ~ 13日23時 CDT に徐々に
風向・風速不定 2m/s
全天の4割程度の雲 雲底高度 910m
14日11時 CDT ~ 14日12時 CDT に徐々に
風向・風速南東 3m/s
MUHA 131700Z 1318/1418 12010KT 9000 FEW030
TEMPO 1319/1322 05010KT 3000 TSRA FEW018CB BKN030
BECMG 1401/1403 VRB03KT SCT030
BECMG 1415/1416 13005KT